createdAt,value
2023-03-04T00:00:17.602Z,87.629
2023-03-04T00:01:18.170Z,87.498
2023-03-04T00:02:18.028Z,87.763
2023-03-04T00:03:17.866Z,87.694
2023-03-04T00:04:17.583Z,87.753
2023-03-04T00:05:18.244Z,87.782
2023-03-04T00:06:18.081Z,87.858
2023-03-04T00:07:17.769Z,87.702
2023-03-04T00:08:17.420Z,88.198
2023-03-04T00:09:18.097Z,88.064
2023-03-04T00:10:17.877Z,88.331
2023-03-04T00:11:17.514Z,87.994
2023-03-04T00:12:18.225Z,88.108
2023-03-04T00:13:18.021Z,88.238
2023-03-04T00:14:17.925Z,88.285
2023-03-04T00:15:17.574Z,88.362
2023-03-04T00:16:18.341Z,88.549
2023-03-04T00:17:18.176Z,88.745
2023-03-04T00:18:17.825Z,88.635
2023-03-04T00:19:17.524Z,88.495
2023-03-04T00:20:17.483Z,88.574
2023-03-04T00:21:18.092Z,88.862
2023-03-04T00:22:17.684Z,88.293
2023-03-04T00:23:18.324Z,88.175
2023-03-04T00:24:18.208Z,88.884
2023-03-04T00:25:18.219Z,88.743
2023-03-04T00:26:17.842Z,89.018
2023-03-04T00:27:17.492Z,88.818
2023-03-04T00:28:18.142Z,88.518
2023-03-04T00:29:17.864Z,88.223
2023-03-04T00:30:17.605Z,88.551
2023-03-04T00:31:18.357Z,88.968
2023-03-04T00:32:18.409Z,88.974
2023-03-04T00:33:18.134Z,89.001
2023-03-04T00:34:17.780Z,88.728
2023-03-04T00:35:18.113Z,89.150
2023-03-04T00:36:17.882Z,89.157
2023-03-04T00:37:17.658Z,88.923
2023-03-04T00:38:18.219Z,89.550
2023-03-04T00:39:17.853Z,89.897
2023-03-04T00:40:17.430Z,89.583
2023-03-04T00:41:18.149Z,89.546
2023-03-04T00:42:17.806Z,89.672
2023-03-04T00:43:17.476Z,89.098
2023-03-04T00:44:18.432Z,89.371
2023-03-04T00:45:18.121Z,88.768
2023-03-04T00:46:18.105Z,89.323
2023-03-04T00:47:17.767Z,89.523
2023-03-04T00:48:17.391Z,89.699
2023-03-04T00:49:17.452Z,89.912
2023-03-04T00:50:18.025Z,90.069
2023-03-04T00:51:17.727Z,89.838
2023-03-04T00:52:17.699Z,89.525
2023-03-04T00:53:17.448Z,89.562
2023-03-04T00:54:20.240Z,89.443
2023-03-04T00:55:17.845Z,89.609
2023-03-04T00:56:17.516Z,90.075
2023-03-04T00:57:18.213Z,89.726
2023-03-04T00:58:17.869Z,89.853
2023-03-04T00:59:17.564Z,89.783
2023-03-04T01:00:18.251Z,89.924
2023-03-04T01:01:18.070Z,90.021
2023-03-04T01:02:17.768Z,89.995
2023-03-04T01:03:17.576Z,89.481
2023-03-04T01:04:18.185Z,89.655
2023-03-04T01:05:17.832Z,89.872
2023-03-04T01:06:17.397Z,90.143
2023-03-04T01:07:17.969Z,89.882
2023-03-04T01:08:18.072Z,89.378
2023-03-04T01:09:17.725Z,89.758
2023-03-04T01:10:18.345Z,89.914
2023-03-04T01:11:17.995Z,90.035
2023-03-04T01:12:17.803Z,89.745
2023-03-04T01:13:17.424Z,89.893
2023-03-04T01:14:18.288Z,89.989
2023-03-04T01:15:17.904Z,89.590
2023-03-04T01:16:17.606Z,89.697
2023-03-04T01:17:17.380Z,89.960
2023-03-04T01:18:18.248Z,90.298
2023-03-04T01:19:17.951Z,90.124
2023-03-04T01:20:17.576Z,90.115
2023-03-04T01:21:18.361Z,90.193
2023-03-04T01:22:18.015Z,90.304
2023-03-04T01:23:17.760Z,90.069
2023-03-04T01:24:17.515Z,90.229
2023-03-04T01:25:18.225Z,90.054
2023-03-04T01:26:17.936Z,90.157
2023-03-04T01:27:17.550Z,90.088
2023-03-04T01:28:18.205Z,90.315
2023-03-04T01:29:17.861Z,90.315
2023-03-04T01:30:17.512Z,90.145
2023-03-04T01:31:18.342Z,90.342
2023-03-04T01:32:18.169Z,90.366
2023-03-04T01:33:18.048Z,90.326
2023-03-04T01:34:17.605Z,90.433
2023-03-04T01:35:18.288Z,90.489
2023-03-04T01:36:17.962Z,90.277
2023-03-04T01:37:17.632Z,90.542
2023-03-04T01:38:17.366Z,90.521
2023-03-04T01:39:17.966Z,90.626
2023-03-04T01:40:17.667Z,90.633
2023-03-04T01:41:18.272Z,90.614
2023-03-04T01:42:17.892Z,90.708
2023-03-04T01:43:17.536Z,90.628
2023-03-04T01:44:18.230Z,90.548
2023-03-04T01:45:17.843Z,90.593
2023-03-04T01:46:17.647Z,90.567
2023-03-04T01:47:17.371Z,90.540
2023-03-04T01:48:18.024Z,90.485
2023-03-04T01:49:17.792Z,90.536
2023-03-04T01:50:17.599Z,90.656
2023-03-04T01:51:18.341Z,90.643
2023-03-04T01:52:17.976Z,90.662
2023-03-04T01:53:17.641Z,90.582
2023-03-04T01:54:18.263Z,90.588
2023-03-04T01:55:17.907Z,90.536
2023-03-04T01:56:17.556Z,90.529
2023-03-04T01:57:18.241Z,90.483
2023-03-04T01:58:17.933Z,90.496
2023-03-04T01:59:17.553Z,90.572
2023-03-04T02:00:18.185Z,90.481
2023-03-04T02:01:17.802Z,90.645
2023-03-04T02:02:17.585Z,90.546
2023-03-04T02:03:18.246Z,90.399
2023-03-04T02:04:17.946Z,90.477
2023-03-04T02:05:17.882Z,90.508
2023-03-04T02:06:17.484Z,90.525
2023-03-04T02:07:18.173Z,90.326
2023-03-04T02:08:17.892Z,90.273
2023-03-04T02:09:17.527Z,90.420
2023-03-04T02:10:18.148Z,90.317
2023-03-04T02:11:17.820Z,90.212
2023-03-04T02:12:17.533Z,90.307
2023-03-04T02:13:18.190Z,90.263
2023-03-04T02:14:17.831Z,90.197
2023-03-04T02:15:17.589Z,90.227
2023-03-04T02:16:18.354Z,90.118
2023-03-04T02:17:18.100Z,90.414
2023-03-04T02:18:17.845Z,90.181
2023-03-04T02:19:17.566Z,90.431
2023-03-04T02:20:18.350Z,90.542
2023-03-04T02:21:18.296Z,90.462
2023-03-04T02:22:17.972Z,90.414
2023-03-04T02:23:17.689Z,90.275
2023-03-04T02:24:18.282Z,90.492
2023-03-04T02:25:17.928Z,90.326
2023-03-04T02:26:17.608Z,90.241
2023-03-04T02:27:19.922Z,90.447
2023-03-04T02:28:17.549Z,90.206
2023-03-04T02:29:18.226Z,90.141
2023-03-04T02:30:17.940Z,90.288
2023-03-04T02:31:17.695Z,90.414
2023-03-04T02:32:17.850Z,90.456
2023-03-04T02:33:17.610Z,90.460
2023-03-04T02:34:18.264Z,90.302
2023-03-04T02:35:18.529Z,90.490
2023-03-04T02:36:18.339Z,90.380
2023-03-04T02:37:18.222Z,90.527
2023-03-04T02:38:17.883Z,90.515
2023-03-04T02:39:17.904Z,90.420
2023-03-04T02:40:17.975Z,90.529
2023-03-04T02:41:17.565Z,90.448
2023-03-04T02:42:18.270Z,90.374
2023-03-04T02:43:17.966Z,90.231
2023-03-04T02:44:17.662Z,90.195
2023-03-04T02:45:18.320Z,90.340
2023-03-04T02:46:18.074Z,90.338
2023-03-04T02:47:18.343Z,90.365
2023-03-04T02:48:17.969Z,90.208
2023-03-04T02:49:17.566Z,90.151
2023-03-04T02:50:18.205Z,90.157
2023-03-04T02:51:17.821Z,90.035
2023-03-04T02:52:17.504Z,89.956
2023-03-04T02:53:18.111Z,90.050
2023-03-04T02:54:17.688Z,90.059
2023-03-04T02:55:17.418Z,90.109
2023-03-04T02:56:18.028Z,90.078
2023-03-04T02:57:17.712Z,90.113
2023-03-04T02:58:17.407Z,90.088
2023-03-04T02:59:18.056Z,90.206
2023-03-04T03:00:17.770Z,90.057
2023-03-04T03:01:17.394Z,89.909
2023-03-04T03:02:18.173Z,89.966
2023-03-04T03:03:17.909Z,89.872
2023-03-04T03:04:17.635Z,89.850
2023-03-04T03:05:18.340Z,89.918
2023-03-04T03:06:18.041Z,89.785
2023-03-04T03:07:17.751Z,89.750
2023-03-04T03:08:17.415Z,89.684
2023-03-04T03:09:18.116Z,89.644
2023-03-04T03:10:17.716Z,89.542
2023-03-04T03:11:17.403Z,89.502
2023-03-04T03:12:18.120Z,89.487
2023-03-04T03:13:17.751Z,89.474
2023-03-04T03:14:17.510Z,89.377
2023-03-04T03:15:18.220Z,89.470
2023-03-04T03:16:17.956Z,89.508
2023-03-04T03:17:17.966Z,89.455
2023-03-04T03:18:17.593Z,89.552
2023-03-04T03:19:18.337Z,89.270
2023-03-04T03:20:17.959Z,89.260
2023-03-04T03:21:17.530Z,89.184
2023-03-04T03:22:18.302Z,89.317
2023-03-04T03:23:17.921Z,89.386
2023-03-04T03:24:17.629Z,89.636
2023-03-04T03:25:18.242Z,89.705
2023-03-04T03:26:18.053Z,89.945
2023-03-04T03:27:17.702Z,89.947
2023-03-04T03:28:18.445Z,90.002
2023-03-04T03:29:18.097Z,89.832
2023-03-04T03:30:17.688Z,89.872
2023-03-04T03:31:18.440Z,90.098
2023-03-04T03:32:17.458Z,90.176
2023-03-04T03:33:18.229Z,90.054
2023-03-04T03:34:17.913Z,90.122
2023-03-04T03:35:17.562Z,90.122
2023-03-04T03:36:18.604Z,90.263
2023-03-04T03:37:17.449Z,90.290
2023-03-04T03:38:18.120Z,90.279
2023-03-04T03:39:17.787Z,90.317
2023-03-04T03:40:17.496Z,90.250
2023-03-04T03:41:18.125Z,90.254
2023-03-04T03:42:17.848Z,90.086
2023-03-04T03:43:17.509Z,90.220
2023-03-04T03:44:18.273Z,90.265
2023-03-04T03:45:18.013Z,90.248
2023-03-04T03:46:17.777Z,90.199
2023-03-04T03:47:17.692Z,90.269
2023-03-04T03:48:18.323Z,90.298
2023-03-04T03:49:18.055Z,90.069
2023-03-04T03:50:17.656Z,90.077
2023-03-04T03:51:18.296Z,89.956
2023-03-04T03:52:17.899Z,89.922
2023-03-04T03:53:17.595Z,90.090
2023-03-04T03:54:18.339Z,90.145
2023-03-04T03:55:21.015Z,90.088
2023-03-04T03:56:17.692Z,90.141
2023-03-04T03:57:18.313Z,90.105
2023-03-04T03:58:17.971Z,89.979
2023-03-04T03:59:17.733Z,90.033
2023-03-04T04:00:17.392Z,90.183
2023-03-04T04:01:18.140Z,90.187
2023-03-04T04:02:18.068Z,90.204
2023-03-04T04:03:18.373Z,90.229
2023-03-04T04:04:18.053Z,90.279
2023-03-04T04:05:17.677Z,90.443
2023-03-04T04:06:17.400Z,90.586
2023-03-04T04:07:18.036Z,90.641
2023-03-04T04:08:17.682Z,90.538
2023-03-04T04:09:18.498Z,90.294
2023-03-04T04:10:18.085Z,90.569
2023-03-04T04:11:17.712Z,90.626
2023-03-04T04:12:18.343Z,90.504
2023-03-04T04:13:18.141Z,90.643
2023-03-04T04:14:17.833Z,90.994
2023-03-04T04:15:17.392Z,91.063
2023-03-04T04:16:21.373Z,91.023
2023-03-04T04:17:21.761Z,91.105
2023-03-04T04:18:22.048Z,91.107
2023-03-04T04:19:18.242Z,91.171
2023-03-04T04:20:17.900Z,91.135
2023-03-04T04:21:17.619Z,91.107
2023-03-04T04:22:18.234Z,90.878
2023-03-04T04:23:17.907Z,90.887
2023-03-04T04:24:17.521Z,90.860
2023-03-04T04:25:18.339Z,90.883
2023-03-04T04:26:17.933Z,91.036
2023-03-04T04:27:17.540Z,90.983
2023-03-04T04:28:18.348Z,91.177
2023-03-04T04:29:17.956Z,91.131
2023-03-04T04:30:17.557Z,91.158
2023-03-04T04:31:18.489Z,91.217
2023-03-04T04:32:18.168Z,91.063
2023-03-04T04:33:18.045Z,91.023
2023-03-04T04:34:17.665Z,91.120
2023-03-04T04:35:18.376Z,90.977
2023-03-04T04:36:18.142Z,91.045
2023-03-04T04:37:17.696Z,91.137
2023-03-04T04:38:17.530Z,91.053
2023-03-04T04:39:18.121Z,91.225
2023-03-04T04:40:17.926Z,91.036
2023-03-04T04:41:17.532Z,90.845
2023-03-04T04:42:18.192Z,90.744
2023-03-04T04:43:17.853Z,90.759
2023-03-04T04:44:17.484Z,91.047
2023-03-04T04:45:18.152Z,90.862
2023-03-04T04:46:17.947Z,90.658
2023-03-04T04:47:17.619Z,90.649
2023-03-04T04:48:18.119Z,90.645
2023-03-04T04:49:17.791Z,90.744
2023-03-04T04:50:17.672Z,90.996
2023-03-04T04:51:18.250Z,90.923
2023-03-04T04:52:17.882Z,90.654
2023-03-04T04:53:17.605Z,90.439
2023-03-04T04:54:18.253Z,90.393
2023-03-04T04:55:17.916Z,90.345
2023-03-04T04:56:17.537Z,90.593
2023-03-04T04:57:17.446Z,90.374
2023-03-04T04:58:18.198Z,90.168
2023-03-04T04:59:17.796Z,90.117
2023-03-04T05:00:17.400Z,90.706
2023-03-04T05:01:18.143Z,90.584
2023-03-04T05:02:18.221Z,90.542
2023-03-04T05:03:22.065Z,90.454
2023-03-04T05:04:17.633Z,90.723
2023-03-04T05:05:18.265Z,90.754
2023-03-04T05:06:17.963Z,90.954
2023-03-04T05:07:17.573Z,90.969
2023-03-04T05:08:18.173Z,91.040
2023-03-04T05:09:17.821Z,90.889
2023-03-04T05:10:17.487Z,90.708
2023-03-04T05:11:18.129Z,90.538
2023-03-04T05:12:17.806Z,90.386
2023-03-04T05:13:17.460Z,90.504
2023-03-04T05:14:18.159Z,90.784
2023-03-04T05:15:17.803Z,90.656
2023-03-04T05:16:17.704Z,90.700
2023-03-04T05:17:17.424Z,90.460
2023-03-04T05:18:18.120Z,90.393
2023-03-04T05:19:17.731Z,90.305
2023-03-04T05:20:17.436Z,90.571
2023-03-04T05:21:18.006Z,90.929
2023-03-04T05:22:17.917Z,90.759
2023-03-04T05:23:17.574Z,90.773
2023-03-04T05:24:18.182Z,90.796
2023-03-04T05:25:17.896Z,90.876
2023-03-04T05:26:17.747Z,90.904
2023-03-04T05:27:17.460Z,90.706
2023-03-04T05:28:18.043Z,90.561
2023-03-04T05:29:17.744Z,90.471
2023-03-04T05:30:18.313Z,90.925
2023-03-04T05:31:18.012Z,90.788
2023-03-04T05:32:17.880Z,90.687
2023-03-04T05:33:17.733Z,90.374
2023-03-04T05:34:18.276Z,90.563
2023-03-04T05:35:18.117Z,90.550
2023-03-04T05:36:17.765Z,90.889
2023-03-04T05:37:17.490Z,90.914
2023-03-04T05:38:18.210Z,91.194
2023-03-04T05:39:18.025Z,91.263
2023-03-04T05:40:17.630Z,90.941
2023-03-04T05:41:18.290Z,90.742
2023-03-04T05:42:17.982Z,90.834
2023-03-04T05:43:17.595Z,90.651
2023-03-04T05:44:18.276Z,90.502
2023-03-04T05:45:17.966Z,90.489
2023-03-04T05:46:17.768Z,90.685
2023-03-04T05:47:18.102Z,90.584
2023-03-04T05:48:18.547Z,90.395
2023-03-04T05:49:18.230Z,90.227
2023-03-04T05:50:17.840Z,90.057
2023-03-04T05:51:17.495Z,90.130
2023-03-04T05:52:18.092Z,90.084
2023-03-04T05:53:17.740Z,90.090
2023-03-04T05:54:17.388Z,90.223
2023-03-04T05:55:17.971Z,90.387
2023-03-04T05:56:17.645Z,90.366
2023-03-04T05:57:18.245Z,90.204
2023-03-04T05:58:17.863Z,90.225
2023-03-04T05:59:17.509Z,90.054
2023-03-04T06:00:18.202Z,90.290
2023-03-04T06:01:17.919Z,90.324
2023-03-04T06:02:17.702Z,90.534
2023-03-04T06:03:17.349Z,90.614
2023-03-04T06:04:18.526Z,90.527
2023-03-04T06:05:18.150Z,90.860
2023-03-04T06:06:17.716Z,90.618
2023-03-04T06:07:18.285Z,90.756
2023-03-04T06:08:17.874Z,90.431
2023-03-04T06:09:17.498Z,90.355
2023-03-04T06:10:18.119Z,90.395
2023-03-04T06:11:17.755Z,90.313
2023-03-04T06:12:17.929Z,90.185
2023-03-04T06:13:17.572Z,90.262
2023-03-04T06:14:18.405Z,90.254
2023-03-04T06:15:18.119Z,90.342
2023-03-04T06:16:18.006Z,90.345
2023-03-04T06:17:17.657Z,90.227
2023-03-04T06:18:18.249Z,90.216
2023-03-04T06:19:17.896Z,90.227
2023-03-04T06:20:17.548Z,90.044
2023-03-04T06:21:18.240Z,90.134
2023-03-04T06:22:17.962Z,89.974
2023-03-04T06:23:17.602Z,89.995
2023-03-04T06:24:18.211Z,89.951
2023-03-04T06:25:18.153Z,89.790
2023-03-04T06:26:17.786Z,90.002
2023-03-04T06:27:17.448Z,89.916
2023-03-04T06:28:18.426Z,90.057
2023-03-04T06:29:18.061Z,89.909
2023-03-04T06:30:17.711Z,89.781
2023-03-04T06:31:18.436Z,89.703
2023-03-04T06:32:18.428Z,89.947
2023-03-04T06:33:18.295Z,89.743
2023-03-04T06:34:17.913Z,89.869
2023-03-04T06:35:17.544Z,89.684
2023-03-04T06:36:18.312Z,89.701
2023-03-04T06:37:17.937Z,89.401
2023-03-04T06:38:17.572Z,89.310
2023-03-04T06:39:18.244Z,89.235
2023-03-04T06:40:18.062Z,89.230
2023-03-04T06:41:17.913Z,89.132
2023-03-04T06:42:17.559Z,89.045
2023-03-04T06:43:18.229Z,89.281
2023-03-04T06:44:17.955Z,89.169
2023-03-04T06:45:17.560Z,89.087
2023-03-04T06:46:18.282Z,89.027
2023-03-04T06:47:18.135Z,89.106
2023-03-04T06:48:17.796Z,88.879
2023-03-04T06:49:17.434Z,88.787
2023-03-04T06:50:18.136Z,88.989
2023-03-04T06:51:17.780Z,88.751
2023-03-04T06:52:17.402Z,88.661
2023-03-04T06:53:17.990Z,88.623
2023-03-04T06:54:17.593Z,88.560
2023-03-04T06:55:18.221Z,88.324
2023-03-04T06:56:17.893Z,88.299
2023-03-04T06:57:17.508Z,88.282
2023-03-04T06:58:18.153Z,88.377
2023-03-04T06:59:17.775Z,88.068
2023-03-04T07:00:17.357Z,87.849
2023-03-04T07:01:18.222Z,87.841
2023-03-04T07:02:17.834Z,87.748
2023-03-04T07:03:17.625Z,87.889
2023-03-04T07:04:18.374Z,87.841
2023-03-04T07:05:17.973Z,87.725
2023-03-04T07:06:17.555Z,87.656
2023-03-04T07:07:18.164Z,87.549
2023-03-04T07:08:17.844Z,87.967
2023-03-04T07:09:17.561Z,88.295
2023-03-04T07:10:18.216Z,88.049
2023-03-04T07:11:17.976Z,88.091
2023-03-04T07:12:17.720Z,87.919
2023-03-04T07:13:17.406Z,87.662
2023-03-04T07:14:18.008Z,87.853
2023-03-04T07:15:17.712Z,88.017
2023-03-04T07:16:18.393Z,87.727
2023-03-04T07:17:18.143Z,87.833
2023-03-04T07:18:17.849Z,87.921
2023-03-04T07:19:17.554Z,87.706
2023-03-04T07:20:18.225Z,87.507
2023-03-04T07:21:17.892Z,87.587
2023-03-04T07:22:17.545Z,87.730
2023-03-04T07:23:18.173Z,87.709
2023-03-04T07:24:17.775Z,87.149
2023-03-04T07:25:17.377Z,87.288
2023-03-04T07:26:19.101Z,87.757
2023-03-04T07:27:17.739Z,87.416
2023-03-04T07:28:17.396Z,87.351
2023-03-04T07:29:18.040Z,87.097
2023-03-04T07:30:17.613Z,87.545
2023-03-04T07:31:18.393Z,87.248
2023-03-04T07:32:18.464Z,87.151
2023-03-04T07:33:17.338Z,86.920
2023-03-04T07:34:18.032Z,87.048
2023-03-04T07:35:17.633Z,87.370
2023-03-04T07:36:17.368Z,86.926
2023-03-04T07:37:17.979Z,86.836
2023-03-04T07:38:17.598Z,86.454
2023-03-04T07:39:18.269Z,86.571
2023-03-04T07:40:17.996Z,86.397
2023-03-04T07:41:17.611Z,86.439
2023-03-04T07:42:18.212Z,86.197
2023-03-04T07:43:17.859Z,86.182
2023-03-04T07:44:17.545Z,86.403
2023-03-04T07:45:18.304Z,86.382
2023-03-04T07:46:18.342Z,86.128
2023-03-04T07:47:17.992Z,86.243
2023-03-04T07:48:17.654Z,86.407
2023-03-04T07:49:18.309Z,85.827
2023-03-04T07:50:19.730Z,86.231
2023-03-04T07:51:18.320Z,86.216
2023-03-04T07:52:17.937Z,85.680
2023-03-04T07:53:17.577Z,85.600
2023-03-04T07:54:18.185Z,86.206
2023-03-04T07:55:17.840Z,85.772
2023-03-04T07:56:17.531Z,86.006
2023-03-04T07:57:18.165Z,85.932
2023-03-04T07:58:17.784Z,85.609
2023-03-04T07:59:17.399Z,85.190
2023-03-04T08:00:18.070Z,85.575
2023-03-04T08:01:17.687Z,85.411
2023-03-04T08:02:17.544Z,85.098
2023-03-04T08:03:18.248Z,85.314
2023-03-04T08:04:18.024Z,85.178
2023-03-04T08:05:17.731Z,85.426
2023-03-04T08:06:17.376Z,84.766
2023-03-04T08:07:18.006Z,84.814
2023-03-04T08:08:19.124Z,84.635
2023-03-04T08:09:17.745Z,84.536
2023-03-04T08:10:18.345Z,84.558
2023-03-04T08:11:18.023Z,84.902
2023-03-04T08:12:17.732Z,84.539
2023-03-04T08:13:18.352Z,84.200
2023-03-04T08:14:17.973Z,84.358
2023-03-04T08:15:17.603Z,83.866
2023-03-04T08:16:18.506Z,84.475
2023-03-04T08:17:18.109Z,84.045
2023-03-04T08:18:17.683Z,84.127
2023-03-04T08:19:18.348Z,83.702
2023-03-04T08:20:17.954Z,83.544
2023-03-04T08:21:17.573Z,83.504
2023-03-04T08:22:18.149Z,83.424
2023-03-04T08:23:17.784Z,83.223
2023-03-04T08:24:17.458Z,83.090
2023-03-04T08:25:18.186Z,82.897
2023-03-04T08:26:17.764Z,82.563
2023-03-04T08:27:17.421Z,81.734
2023-03-04T08:28:18.085Z,81.943
2023-03-04T08:29:17.712Z,81.699
2023-03-04T08:30:17.465Z,81.430
2023-03-04T08:31:18.318Z,81.722
2023-03-04T08:32:18.704Z,81.909
2023-03-04T08:33:17.904Z,81.980
2023-03-04T08:34:17.510Z,81.692
2023-03-04T08:35:18.160Z,81.013
2023-03-04T08:36:17.988Z,80.641
2023-03-04T08:37:17.568Z,80.839
2023-03-04T08:38:21.388Z,81.148
2023-03-04T08:39:18.131Z,80.580
2023-03-04T08:40:17.716Z,80.311
2023-03-04T08:41:17.420Z,79.893
2023-03-04T08:42:18.092Z,79.626
2023-03-04T08:43:17.721Z,79.576
2023-03-04T08:44:17.388Z,79.822
2023-03-04T08:45:18.047Z,79.540
2023-03-04T08:46:17.674Z,80.048
2023-03-04T08:47:17.560Z,79.645
2023-03-04T08:48:18.196Z,79.388
2023-03-04T08:49:17.900Z,79.832
2023-03-04T08:50:19.700Z,79.346
2023-03-04T08:51:17.378Z,79.224
2023-03-04T08:52:17.996Z,78.821
2023-03-04T08:53:17.612Z,78.977
2023-03-04T08:54:18.243Z,78.880
2023-03-04T08:55:17.900Z,78.897
2023-03-04T08:56:17.498Z,79.069
2023-03-04T08:57:18.209Z,79.044
2023-03-04T08:58:17.836Z,79.027
2023-03-04T08:59:17.473Z,78.857
2023-03-04T09:00:18.185Z,78.606
2023-03-04T09:01:17.840Z,78.876
2023-03-04T09:02:17.824Z,78.546
2023-03-04T09:03:17.503Z,78.361
2023-03-04T09:04:18.352Z,78.081
2023-03-04T09:05:18.025Z,77.625
2023-03-04T09:06:17.656Z,77.663
2023-03-04T09:07:17.375Z,78.323
2023-03-04T09:08:18.010Z,77.837
2023-03-04T09:09:17.692Z,77.885
2023-03-04T09:10:17.315Z,77.728
2023-03-04T09:11:17.939Z,77.698
2023-03-04T09:12:17.575Z,77.536
2023-03-04T09:13:18.192Z,77.541
2023-03-04T09:14:17.829Z,77.068
2023-03-04T09:15:22.436Z,76.881
2023-03-04T09:16:18.276Z,76.694
2023-03-04T09:17:17.930Z,77.606
2023-03-04T09:18:17.549Z,77.122
2023-03-04T09:19:18.176Z,76.752
2023-03-04T09:20:17.857Z,75.741
2023-03-04T09:21:17.473Z,75.727
2023-03-04T09:22:18.219Z,76.103
2023-03-04T09:23:17.833Z,76.395
2023-03-04T09:24:17.510Z,76.279
2023-03-04T09:25:18.235Z,75.416
2023-03-04T09:26:17.884Z,75.844
2023-03-04T09:27:17.465Z,75.405
2023-03-04T09:28:18.095Z,75.325
2023-03-04T09:29:17.684Z,75.756
2023-03-04T09:30:17.399Z,75.178
2023-03-04T09:31:18.102Z,75.052
2023-03-04T09:32:17.931Z,74.539
2023-03-04T09:33:17.828Z,75.296
2023-03-04T09:34:17.409Z,75.048
2023-03-04T09:35:18.286Z,74.718
2023-03-04T09:36:18.098Z,75.037
2023-03-04T09:37:17.870Z,74.802
2023-03-04T09:38:17.532Z,74.514
2023-03-04T09:39:18.139Z,74.985
2023-03-04T09:40:17.771Z,75.165
2023-03-04T09:41:18.359Z,74.526
2023-03-04T09:42:18.001Z,74.375
2023-03-04T09:43:17.745Z,73.828
2023-03-04T09:44:17.467Z,73.980
2023-03-04T09:45:18.173Z,73.852
2023-03-04T09:46:17.822Z,73.852
2023-03-04T09:47:17.685Z,74.331
2023-03-04T09:48:18.248Z,74.301
2023-03-04T09:49:17.857Z,73.772
2023-03-04T09:50:18.326Z,73.805
2023-03-04T09:51:17.956Z,74.293
2023-03-04T09:52:17.573Z,75.054
2023-03-04T09:53:18.169Z,73.820
2023-03-04T09:54:17.869Z,73.761
2023-03-04T09:55:17.564Z,73.719
2023-03-04T09:56:18.245Z,73.927
2023-03-04T09:57:18.024Z,73.643
2023-03-04T09:58:17.683Z,73.076
2023-03-04T09:59:18.324Z,73.332
2023-03-04T10:00:17.999Z,73.635
2023-03-04T10:01:18.065Z,73.250
2023-03-04T10:02:17.761Z,73.751
2023-03-04T10:03:18.424Z,73.086
2023-03-04T10:04:18.336Z,73.150
2023-03-04T10:05:18.112Z,73.175
2023-03-04T10:06:17.822Z,73.288
2023-03-04T10:07:17.561Z,73.236
2023-03-04T10:08:18.152Z,73.755
2023-03-04T10:09:17.792Z,72.912
2023-03-04T10:10:17.563Z,72.750
2023-03-04T10:11:18.317Z,72.614
2023-03-04T10:12:18.160Z,72.645
2023-03-04T10:13:17.867Z,73.072
2023-03-04T10:14:17.519Z,72.595
2023-03-04T10:15:18.164Z,72.111
2023-03-04T10:16:17.811Z,72.330
2023-03-04T10:17:17.616Z,72.712
2023-03-04T10:18:20.600Z,72.374
2023-03-04T10:19:18.321Z,71.943
2023-03-04T10:20:17.959Z,71.657
2023-03-04T10:21:17.603Z,72.296
2023-03-04T10:22:18.233Z,71.831
2023-03-04T10:23:17.917Z,71.552
2023-03-04T10:24:19.159Z,72.281
2023-03-04T10:25:17.920Z,71.672
2023-03-04T10:26:17.551Z,71.716
2023-03-04T10:27:18.252Z,71.295
2023-03-04T10:28:17.912Z,72.115
2023-03-04T10:29:17.529Z,72.309
2023-03-04T10:30:18.204Z,72.393
2023-03-04T10:31:17.880Z,71.741
2023-03-04T10:32:17.969Z,71.859
2023-03-04T10:33:17.778Z,71.396
2023-03-04T10:34:17.374Z,71.657
2023-03-04T10:35:20.420Z,72.208
2023-03-04T10:36:18.341Z,71.794
2023-03-04T10:37:17.911Z,72.050
2023-03-04T10:38:17.520Z,71.447
2023-03-04T10:39:18.129Z,70.833
2023-03-04T10:40:17.901Z,70.682
2023-03-04T10:41:17.477Z,70.682
2023-03-04T10:42:18.589Z,69.868
2023-03-04T10:43:17.893Z,70.497
2023-03-04T10:44:17.544Z,70.520
2023-03-04T10:45:18.238Z,70.368
2023-03-04T10:46:18.153Z,70.110
2023-03-04T10:47:17.748Z,70.104
2023-03-04T10:48:17.368Z,70.118
2023-03-04T10:49:18.018Z,70.013
2023-03-04T10:50:17.693Z,70.265
2023-03-04T10:51:18.269Z,69.834
2023-03-04T10:52:17.881Z,69.851
2023-03-04T10:53:17.516Z,70.020
2023-03-04T10:54:18.176Z,70.282
2023-03-04T10:55:17.851Z,70.846
2023-03-04T10:56:17.560Z,70.902
2023-03-04T10:57:18.189Z,70.837
2023-03-04T10:58:17.951Z,70.734
2023-03-04T10:59:17.552Z,71.192
2023-03-04T11:00:18.421Z,70.221
2023-03-04T11:01:18.257Z,70.606
2023-03-04T11:02:17.925Z,69.813
2023-03-04T11:03:17.576Z,70.356
2023-03-04T11:04:18.316Z,70.568
2023-03-04T11:05:18.008Z,70.852
2023-03-04T11:06:17.797Z,70.938
2023-03-04T11:07:17.391Z,70.122
2023-03-04T11:09:21.665Z,70.352
2023-03-04T11:10:22.556Z,70.114
2023-03-04T11:11:22.272Z,69.658
2023-03-04T11:12:22.047Z,70.202
2023-03-04T11:13:21.678Z,69.755
2023-03-04T11:14:22.281Z,69.021
2023-03-04T11:15:21.903Z,69.103
2023-03-04T11:16:21.561Z,68.582
2023-03-04T11:17:21.522Z,68.853
2023-03-04T11:18:22.158Z,69.305
2023-03-04T11:19:22.985Z,69.505
2023-03-04T11:20:21.793Z,69.696
2023-03-04T11:21:21.437Z,70.196
2023-03-04T11:22:21.612Z,70.183
2023-03-04T11:23:24.008Z,69.887
2023-03-04T11:24:28.991Z,70.123
2023-03-04T11:25:22.040Z,69.319
2023-03-04T11:26:21.591Z,69.111
2023-03-04T11:27:22.319Z,69.544
2023-03-04T11:28:22.172Z,69.370
2023-03-04T11:29:21.853Z,69.511
2023-03-04T11:30:21.583Z,69.418
2023-03-04T11:31:22.383Z,69.471
2023-03-04T11:32:22.557Z,69.235
2023-03-04T11:33:22.227Z,69.853
2023-03-04T11:34:21.780Z,69.147
2023-03-04T11:35:21.622Z,69.368
2023-03-04T11:36:22.379Z,69.572
2023-03-04T11:37:22.035Z,69.370
2023-03-04T11:38:21.603Z,68.977
2023-03-04T11:39:22.285Z,69.036
2023-03-04T11:40:24.384Z,69.889
2023-03-04T11:41:22.009Z,69.582
2023-03-04T11:42:21.641Z,69.830
2023-03-04T11:43:22.213Z,69.996
2023-03-04T11:44:21.861Z,70.425
2023-03-04T11:45:29.629Z,69.652
2023-03-04T11:46:22.241Z,69.740
2023-03-04T11:47:22.129Z,69.462
2023-03-04T11:48:21.734Z,69.223
2023-03-04T11:49:22.326Z,69.435
2023-03-04T11:50:22.021Z,68.807
2023-03-04T11:51:21.728Z,68.842
2023-03-04T11:52:21.569Z,68.914
2023-03-04T11:53:22.242Z,68.725
2023-03-04T11:54:22.060Z,69.000
2023-03-04T11:55:21.700Z,69.380
2023-03-04T11:56:21.405Z,69.114
2023-03-04T11:57:22.096Z,69.141
2023-03-04T11:58:21.778Z,69.311
2023-03-04T11:59:21.479Z,68.603
2023-03-04T12:00:22.206Z,68.311
2023-03-04T12:01:21.844Z,68.359
2023-03-04T12:02:22.571Z,68.248
2023-03-04T12:03:22.502Z,67.983
2023-03-04T12:04:23.162Z,68.557
2023-03-04T12:05:22.647Z,68.357
2023-03-04T12:06:22.311Z,68.361
2023-03-04T12:07:22.423Z,69.650
2023-03-04T12:08:22.424Z,69.063
2023-03-04T12:09:22.239Z,67.962
2023-03-04T12:10:22.261Z,67.701
2023-03-04T12:11:22.196Z,68.117
2023-03-04T12:12:22.249Z,68.136
2023-03-04T12:13:22.146Z,68.428
2023-03-04T12:14:24.247Z,67.945
2023-03-04T12:15:21.849Z,68.037
2023-03-04T12:16:22.223Z,68.098
2023-03-04T12:17:22.099Z,67.960
2023-03-04T12:18:22.243Z,67.901
2023-03-04T12:19:22.260Z,67.985
2023-03-04T12:20:22.786Z,67.863
2023-03-04T12:21:22.176Z,68.096
2023-03-04T12:22:22.028Z,67.682
2023-03-04T12:23:22.160Z,67.951
2023-03-04T12:24:21.899Z,68.199
2023-03-04T12:25:22.189Z,68.094
2023-03-04T12:26:22.097Z,68.315
2023-03-04T12:27:21.964Z,67.932
2023-03-04T12:28:22.184Z,67.610
2023-03-04T12:29:21.993Z,68.098